createdAt,value
2019-02-16T00:01:08.438Z,101845.87
2019-02-16T00:03:37.639Z,101847.71
2019-02-16T00:06:06.923Z,101849.88
2019-02-16T00:08:36.637Z,101849.58
2019-02-16T00:11:08.277Z,101856.37
2019-02-16T00:13:38.387Z,101855.45
2019-02-16T00:16:08.345Z,101858.75
2019-02-16T00:18:38.537Z,101849.70
2019-02-16T00:21:07.752Z,101853.91
2019-02-16T00:23:36.960Z,101851.47
2019-02-16T00:26:07.211Z,101847.64
2019-02-16T00:28:38.536Z,101848.13
2019-02-16T00:31:07.717Z,101847.08
2019-02-16T00:33:36.925Z,101846.69
2019-02-16T00:36:06.106Z,101848.17
2019-02-16T00:38:35.192Z,101847.42
2019-02-16T00:41:05.381Z,101842.22
2019-02-16T00:43:35.420Z,101842.77
2019-02-16T00:46:04.650Z,101844.68
2019-02-16T00:48:34.384Z,101846.10
2019-02-16T00:51:12.887Z,101842.41
2019-02-16T00:53:35.525Z,101836.20
2019-02-16T00:56:05.539Z,101839.69
2019-02-16T00:58:34.701Z,101843.61
2019-02-16T01:01:03.913Z,101840.93
2019-02-16T01:03:33.802Z,101841.14
2019-02-16T01:06:03.731Z,101846.39
2019-02-16T01:08:33.726Z,101843.55
2019-02-16T01:11:02.935Z,101848.67
2019-02-16T01:13:33.161Z,101829.48
2019-02-16T01:16:02.283Z,101845.14
2019-02-16T01:18:32.369Z,101839.05
2019-02-16T01:21:01.581Z,101839.95
2019-02-16T01:23:31.149Z,101835.05
2019-02-16T01:26:01.630Z,101831.64
2019-02-16T01:28:31.532Z,101835.52
2019-02-16T01:31:01.051Z,101833.45
2019-02-16T01:33:31.150Z,101842.91
2019-02-16T01:36:01.281Z,101843.30
2019-02-16T01:38:31.144Z,101842.78
2019-02-16T01:41:01.250Z,101842.09
2019-02-16T01:43:31.551Z,101846.00
2019-02-16T01:46:01.224Z,101846.00
2019-02-16T01:48:31.171Z,101838.62
2019-02-16T01:51:01.186Z,101841.68
2019-02-16T01:53:31.108Z,101836.02
2019-02-16T01:56:01.078Z,101832.14
2019-02-16T01:58:30.938Z,101832.69
2019-02-16T02:01:01.427Z,101830.19
2019-02-16T02:03:30.978Z,101831.42
2019-02-16T02:06:00.334Z,101826.14
2019-02-16T02:08:30.342Z,101826.14
2019-02-16T02:11:00.197Z,101835.93
2019-02-16T02:13:30.181Z,101811.80
2019-02-16T02:16:00.319Z,101811.80
2019-02-16T02:18:31.039Z,101830.83
2019-02-16T02:21:00.781Z,101826.11
2019-02-16T02:23:30.849Z,101830.39
2019-02-16T02:26:00.080Z,101816.58
2019-02-16T02:28:29.198Z,101819.37
2019-02-16T02:30:58.365Z,101819.84
2019-02-16T02:33:28.563Z,101819.67
2019-02-16T02:35:58.703Z,101820.56
2019-02-16T02:38:29.236Z,101829.00
2019-02-16T02:40:59.523Z,101829.20
2019-02-16T02:43:28.902Z,101829.54
2019-02-16T02:45:58.289Z,101828.70
2019-02-16T02:48:27.448Z,101834.77
2019-02-16T02:50:56.854Z,101834.63
2019-02-16T02:53:31.278Z,101834.08
2019-02-16T02:55:59.002Z,101812.48
2019-02-16T02:58:29.447Z,101830.36
2019-02-16T03:00:59.637Z,101828.91
2019-02-16T03:03:29.082Z,101826.70
2019-02-16T03:05:58.589Z,101822.56
2019-02-16T03:08:27.900Z,101816.78
2019-02-16T03:10:58.088Z,101817.92
2019-02-16T03:13:28.844Z,101818.28
2019-02-16T03:15:59.032Z,101818.70
2019-02-16T03:18:28.283Z,101819.00
2019-02-16T03:20:58.337Z,101816.69
2019-02-16T03:23:27.477Z,101816.69
2019-02-16T03:25:58.963Z,101819.70
2019-02-16T03:28:31.999Z,101797.86
2019-02-16T03:31:35.169Z,101813.70
2019-02-16T03:34:10.320Z,101807.53
2019-02-16T03:37:04.949Z,101807.53
2019-02-16T03:39:35.052Z,101800.55
2019-02-16T03:42:05.249Z,101805.52
2019-02-16T03:44:34.385Z,101806.20
2019-02-16T03:47:04.953Z,101812.94
2019-02-16T03:49:34.883Z,101821.76
2019-02-16T03:52:13.256Z,101829.26
2019-02-16T03:54:36.089Z,101831.60
2019-02-16T03:57:05.929Z,101836.43
2019-02-16T03:59:35.139Z,101840.34
2019-02-16T04:02:04.600Z,101850.17
2019-02-16T04:04:35.093Z,101851.05
2019-02-16T04:07:05.072Z,101859.59
2019-02-16T04:09:35.001Z,101851.58
2019-02-16T04:12:04.167Z,101847.03
2019-02-16T04:14:34.218Z,101842.38
2019-02-16T04:17:04.213Z,101841.31
2019-02-16T04:19:34.370Z,101840.36
2019-02-16T04:22:04.791Z,101832.80
2019-02-16T04:24:35.887Z,101833.26
2019-02-16T04:27:06.279Z,101834.20
2019-02-16T04:29:35.698Z,101837.61
2019-02-16T04:32:05.677Z,101834.48
2019-02-16T04:34:34.922Z,101829.36
2019-02-16T04:37:04.127Z,101829.36
2019-02-16T04:39:34.616Z,101828.75
2019-02-16T04:42:05.596Z,101829.73
2019-02-16T04:44:34.885Z,101824.09
2019-02-16T04:47:04.089Z,101823.91
2019-02-16T04:49:33.285Z,101819.66
2019-02-16T04:52:02.483Z,101818.86
2019-02-16T04:54:31.671Z,101823.17
2019-02-16T04:57:01.845Z,101821.81
2019-02-16T04:59:31.111Z,101814.42
2019-02-16T05:02:02.541Z,101817.73
2019-02-16T05:04:32.432Z,101808.09
2019-02-16T05:07:01.573Z,101808.09
2019-02-16T05:09:31.662Z,101815.92
2019-02-16T05:12:00.840Z,101821.19
2019-02-16T05:14:30.197Z,101824.88
2019-02-16T05:16:59.429Z,101821.05
2019-02-16T05:19:30.120Z,101815.03
2019-02-16T05:22:00.554Z,101814.75
2019-02-16T05:24:29.792Z,101817.48
2019-02-16T05:26:59.028Z,101813.64
2019-02-16T05:29:28.234Z,101826.42
2019-02-16T05:31:58.442Z,101824.53
2019-02-16T05:34:28.595Z,101833.31
2019-02-16T05:36:57.844Z,101827.23
2019-02-16T05:39:28.498Z,101823.95
2019-02-16T05:41:57.905Z,101820.13
2019-02-16T05:44:27.199Z,101822.20
2019-02-16T05:46:59.262Z,101821.83
2019-02-16T05:49:29.045Z,101833.62
2019-02-16T05:51:58.264Z,101828.00
2019-02-16T05:54:28.705Z,101837.82
2019-02-16T05:56:59.553Z,101829.76
2019-02-16T05:59:28.747Z,101821.83
2019-02-16T06:01:58.945Z,101826.96
2019-02-16T06:04:28.612Z,101823.33
2019-02-16T06:06:58.207Z,101830.52
2019-02-16T06:09:27.465Z,101818.49
2019-02-16T06:11:56.550Z,101826.55
